RORH(METAR)
01/31 11:00
RORH 310200Z 21006KT CAVOK 25/17 Q1020 RMK A3013=
戻る
トップページへ戻る
IMOC Co,.Ltd.